Time;durP1;ratioP1;P1;durP2;ratioP2;P2;SDS_P1;SDS_P2;PMS_P1;PMS_P2;Temp;Humidity;BMP_temperature;BMP_pressure;BME280_temperature;BME280_humidity;BME280_pressure;Samples;Min_cycle;Max_cycle;Signal;HPM_P1;HPM_P2
2021/12/06 00:00:31;;;;;;;;;;;;;;;;;;2132233;27;20432;-43
2021/12/06 00:01:32;;;;;;;;;;;;;;;;;;2129079;27;19963;-44
2021/12/06 00:02:33;;;;;;;;;;;;;;;;;;2127901;27;19922;-43
2021/12/06 00:03:35;;;;;;;;;;;;;;;;;;2132229;27;19923;-44
2021/12/06 00:04:36;;;;;;;;;;;;;;;;;;2130851;27;19923;-44
2021/12/06 00:05:37;;;;;;;;;;;;;;;;;;2124286;27;19930;-43
2021/12/06 00:06:38;;;;;;;;;;;;;;;;;;2123399;28;19924;-43
2021/12/06 00:07:38;;;;;;;;;;;;;;;;;;2124924;27;19923;-43
2021/12/06 00:08:39;;;;;;;;;;;;;;;;;;2129295;27;20291;-43
2021/12/06 00:09:40;;;;;;;;;;;;;;;;;;2132248;27;19923;-43
2021/12/06 00:10:42;;;;;;;;;;;;;;;;;;2129883;27;19923;-43
2021/12/06 00:11:43;;;;;;;;;;;;;;;;;;2123996;27;20060;-44
2021/12/06 00:12:44;;;;;;;;;;;;;;;;;;2123411;28;19924;-43
2021/12/06 00:13:44;;;;;;;;;;;;;;;;;;2123297;27;19924;-43
2021/12/06 00:14:45;;;;;;;;;;;;;;;;;;2131003;27;19923;-44
2021/12/06 00:15:48;;;;;;;;;;;;;;;;;;2132014;27;19934;-43
2021/12/06 00:16:50;;;;;;;;;;;;;;;;;;2127311;27;20013;-43
2021/12/06 00:17:51;;;;;;;;;;;;;;;;;;2123318;28;20388;-43
2021/12/06 00:18:52;;;;;;;;;;;;;;;;;;2123550;28;19930;-43
2021/12/06 00:19:53;;;;;;;;;;;;;;;;;;2125078;27;20011;-44
2021/12/06 00:20:53;;;;;;;;;;;;;;;;;;2132097;27;19923;-44
2021/12/06 00:21:54;;;;;;;;;;;;;;;;;;2132033;27;19946;-43
2021/12/06 00:22:55;;;;;;;;;;;;;;;;;;2128260;27;20115;-43
2021/12/06 00:23:56;;;;;;;;;;;;;;;;;;2123498;28;20293;-43
2021/12/06 00:24:57;;;;;;;;;;;;;;;;;;2122854;27;20413;-43
2021/12/06 00:25:57;;;;;;;;;;;;;;;;;;2126977;27;19935;-43
2021/12/06 00:26:58;;;;;;;;;;;;;;;;;;2131828;27;20398;-43
2021/12/06 00:27:59;;;;;;;;;;;;;;;;;;2131385;27;19938;-43
2021/12/06 00:29:00;;;;;;;;;;;;;;;;;;2128041;27;19934;-43
2021/12/06 00:30:01;;;;;;;;;;;;;;;;;;2131879;27;20374;-43
2021/12/06 00:31:02;;;;;;;;;;;;;;;;;;2131228;27;19935;-44
2021/12/06 00:32:03;;;;;;;;;;;;;;;;;;2127643;27;19966;-44
2021/12/06 00:33:04;;;;;;;;;;;;;;;;;;2131982;27;19934;-43
2021/12/06 00:34:07;;;;;;;;;;;;;;;;;;2129608;27;19923;-44
2021/12/06 00:35:08;;;;;;;;;;;;;;;;;;2127097;27;20068;-43
2021/12/06 00:36:15;;;;;;;;;;;;;;;;;;2131868;27;19976;-43
2021/12/06 00:37:18;;;;;;;;;;;;;;;;;;2127804;27;20050;-43
2021/12/06 00:38:19;;;;;;;;;;;;;;;;;;2129079;27;20013;-44
2021/12/06 00:39:20;;;;;;;;;;;;;;;;;;2131711;27;19930;-45
2021/12/06 00:40:21;;;;;;;;;;;;;;;;;;2128126;27;19923;-43
2021/12/06 00:41:22;;;;;;;;;;;;;;;;;;2123835;27;19931;-45
2021/12/06 00:42:22;;;;;;;;;;;;;;;;;;2123230;28;20329;-43
2021/12/06 00:43:23;;;;;;;;;;;;;;;;;;2124846;27;20384;-43
2021/12/06 00:44:24;;;;;;;;;;;;;;;;;;2130479;27;20348;-44
2021/12/06 00:45:25;;;;;;;;;;;;;;;;;;2131875;27;20365;-44
2021/12/06 00:46:25;;;;;;;;;;;;;;;;;;2126555;27;19923;-44
2021/12/06 00:47:27;;;;;;;;;;;;;;;;;;2131129;27;19923;-43
2021/12/06 00:48:28;;;;;;;;;;;;;;;;;;2132147;27;19927;-43
2021/12/06 00:49:28;;;;;;;;;;;;;;;;;;2128101;27;20375;-43
2021/12/06 00:50:29;;;;;;;;;;;;;;;;;;2123272;28;20395;-44
2021/12/06 00:51:30;;;;;;;;;;;;;;;;;;2123225;28;19923;-44
2021/12/06 00:52:31;;;;;;;;;;;;;;;;;;2125804;27;19993;-43
2021/12/06 00:53:32;;;;;;;;;;;;;;;;;;2123315;28;20297;-44
2021/12/06 00:54:35;;;;;;;;;;;;;;;;;;2123337;28;19961;-44
2021/12/06 00:55:36;;;;;;;;;;;;;;;;;;2125734;27;20022;-43
2021/12/06 00:56:37;;;;;;;;;;;;;;;;;;2123448;28;19923;-45
2021/12/06 00:57:38;;;;;;;;;;;;;;;;;;2123226;27;19930;-46
2021/12/06 00:58:39;;;;;;;;;;;;;;;;;;2126338;27;19923;-46
2021/12/06 00:59:39;;;;;;;;;;;;;;;;;;2131704;27;19923;-46
2021/12/06 01:00:40;;;;;;;;;;;;;;;;;;2129473;27;20308;-45
2021/12/06 01:01:41;;;;;;;;;;;;;;;;;;2124707;27;19927;-46
2021/12/06 01:02:42;;;;;;;;;;;;;;;;;;2123151;28;20330;-46
2021/12/06 01:03:43;;;;;;;;;;;;;;;;;;2124608;27;20025;-46
2021/12/06 01:04:44;;;;;;;;;;;;;;;;;;2126512;27;19927;-47
2021/12/06 01:05:45;;;;;;;;;;;;;;;;;;2131882;27;20300;-46
2021/12/06 01:06:46;;;;;;;;;;;;;;;;;;2129597;27;19929;-46
2021/12/06 01:07:47;;;;;;;;;;;;;;;;;;2127870;27;19930;-46
2021/12/06 01:08:47;;;;;;;;;;;;;;;;;;2131810;27;19927;-47
2021/12/06 01:09:48;;;;;;;;;;;;;;;;;;2130082;27;19954;-46
2021/12/06 01:10:49;;;;;;;;;;;;;;;;;;2127654;27;19923;-46
2021/12/06 01:11:50;;;;;;;;;;;;;;;;;;2131695;27;20022;-46
2021/12/06 01:12:51;;;;;;;;;;;;;;;;;;2130336;27;20034;-48
2021/12/06 01:13:52;;;;;;;;;;;;;;;;;;2128666;27;20296;-46
2021/12/06 01:14:52;;;;;;;;;;;;;;;;;;2131709;27;19987;-46
2021/12/06 01:15:54;;;;;;;;;;;;;;;;;;2129181;27;19983;-46
2021/12/06 01:16:55;;;;;;;;;;;;;;;;;;2122757;27;20388;-47
2021/12/06 01:17:57;;;;;;;;;;;;;;;;;;2123211;28;19927;-50
2021/12/06 01:18:58;;;;;;;;;;;;;;;;;;2126364;27;20018;-46
2021/12/06 01:19:59;;;;;;;;;;;;;;;;;;2123400;27;19923;-46
2021/12/06 01:21:06;;;;;;;;;;;;;;;;;;2123048;28;20384;-48
2021/12/06 01:22:17;;;;;;;;;;;;;;;;;;2124527;27;19959;-44
2021/12/06 01:23:21;;;;;;;;;;;;;;;;;;2131649;27;19923;-44
2021/12/06 01:24:28;;;;;;;;;;;;;;;;;;2130202;27;20147;-43
2021/12/06 01:25:35;;;;;;;;;;;;;;;;;;2127764;27;20006;-43
2021/12/06 01:28:18;;;;;;;;;;;;;;;;;;2126583;27;20022;-44
2021/12/06 01:30:55;;;;;;;;;;;;;;;;;;2111848;28;19986;-44
2021/12/06 01:32:02;;;;;;;;;;;;;;;;;;2130677;27;20383;-44
2021/12/06 01:39:34;;;;;;;;;;;;;;;;;;2125609;27;20007;-44
2021/12/06 01:40:35;;;;;;;;;;;;;;;;;;2128408;27;19930;-44
2021/12/06 01:41:36;;;;;;;;;;;;;;;;;;2131476;27;19923;-44
2021/12/06 01:42:36;;;;;;;;;;;;;;;;;;2129873;27;19949;-47
2021/12/06 01:43:37;;;;;;;;;;;;;;;;;;2122959;28;20270;-45
2021/12/06 01:44:38;;;;;;;;;;;;;;;;;;2122941;28;19930;-46
2021/12/06 01:45:39;;;;;;;;;;;;;;;;;;2126473;27;19980;-46
2021/12/06 01:46:40;;;;;;;;;;;;;;;;;;2124186;28;19973;-46
2021/12/06 01:47:41;;;;;;;;;;;;;;;;;;2124373;28;20016;-46
2021/12/06 01:48:42;;;;;;;;;;;;;;;;;;2128188;27;20368;-46
2021/12/06 01:49:43;;;;;;;;;;;;;;;;;;2132921;27;19926;-46
2021/12/06 01:50:43;;;;;;;;;;;;;;;;;;2132695;27;19923;-46
2021/12/06 01:51:44;;;;;;;;;;;;;;;;;;2128871;27;19949;-47
2021/12/06 01:52:45;;;;;;;;;;;;;;;;;;2124440;28;19923;-46
2021/12/06 01:53:46;;;;;;;;;;;;;;;;;;2124070;27;19950;-46
2021/12/06 01:54:47;;;;;;;;;;;;;;;;;;2127251;27;20295;-46
2021/12/06 01:55:48;;;;;;;;;;;;;;;;;;2132928;27;19972;-46
2021/12/06 01:56:49;;;;;;;;;;;;;;;;;;2130817;27;19930;-46
2021/12/06 01:57:50;;;;;;;;;;;;;;;;;;2126631;27;20268;-45
2021/12/06 01:58:50;;;;;;;;;;;;;;;;;;2124427;28;19924;-48
2021/12/06 01:59:52;;;;;;;;;;;;;;;;;;2126067;27;19923;-46
2021/12/06 02:00:53;;;;;;;;;;;;;;;;;;2130199;27;20005;-47
2021/12/06 02:01:54;;;;;;;;;;;;;;;;;;2132973;27;19923;-45
2021/12/06 02:02:55;;;;;;;;;;;;;;;;;;2130335;27;19958;-43
2021/12/06 02:03:56;;;;;;;;;;;;;;;;;;2128538;27;19927;-43
2021/12/06 02:04:57;;;;;;;;;;;;;;;;;;2133037;27;19923;-44
2021/12/06 02:05:57;;;;;;;;;;;;;;;;;;2131714;27;19945;-43
2021/12/06 02:06:58;;;;;;;;;;;;;;;;;;2129284;27;20058;-44
2021/12/06 02:07:59;;;;;;;;;;;;;;;;;;2132809;27;19923;-44
2021/12/06 02:09:00;;;;;;;;;;;;;;;;;;2128718;27;19979;-44
2021/12/06 02:10:01;;;;;;;;;;;;;;;;;;2123962;27;20359;-43
2021/12/06 02:11:03;;;;;;;;;;;;;;;;;;2124263;28;19974;-43
2021/12/06 02:12:04;;;;;;;;;;;;;;;;;;2127207;27;19970;-45
2021/12/06 02:13:07;;;;;;;;;;;;;;;;;;2124664;27;19923;-44
2021/12/06 02:14:20;;;;;;;;;;;;;;;;;;2124353;28;20002;-44
2021/12/06 02:15:34;;;;;;;;;;;;;;;;;;2126683;27;20240;-43
2021/12/06 02:16:42;;;;;;;;;;;;;;;;;;2124204;28;19923;-43
2021/12/06 02:17:52;;;;;;;;;;;;;;;;;;2124775;27;20087;-43
2021/12/06 02:19:01;;;;;;;;;;;;;;;;;;2125174;27;20021;-44
2021/12/06 02:20:04;;;;;;;;;;;;;;;;;;2124311;28;20026;-44
2021/12/06 02:21:05;;;;;;;;;;;;;;;;;;2124608;27;19970;-44
2021/12/06 02:22:06;;;;;;;;;;;;;;;;;;2132390;27;19939;-44
2021/12/06 02:23:07;;;;;;;;;;;;;;;;;;2132793;27;19930;-43
2021/12/06 02:24:09;;;;;;;;;;;;;;;;;;2128959;27;19923;-43
2021/12/06 02:25:14;;;;;;;;;;;;;;;;;;2124151;28;19955;-44
2021/12/06 02:26:14;;;;;;;;;;;;;;;;;;2124152;28;20018;-44
2021/12/06 02:27:15;;;;;;;;;;;;;;;;;;2127740;27;19966;-43
2021/12/06 02:28:16;;;;;;;;;;;;;;;;;;2124125;28;19927;-44
2021/12/06 02:29:17;;;;;;;;;;;;;;;;;;2127087;27;19923;-44
2021/12/06 02:30:18;;;;;;;;;;;;;;;;;;2127856;27;19930;-45
2021/12/06 02:31:18;;;;;;;;;;;;;;;;;;2124170;28;19923;-43
2021/12/06 02:32:20;;;;;;;;;;;;;;;;;;2123489;27;20368;-44
2021/12/06 02:33:22;;;;;;;;;;;;;;;;;;2126843;27;20026;-44
2021/12/06 02:34:22;;;;;;;;;;;;;;;;;;2124276;28;20020;-43
2021/12/06 02:35:23;;;;;;;;;;;;;;;;;;2125251;27;20311;-44
2021/12/06 02:36:25;;;;;;;;;;;;;;;;;;2124023;27;19923;-44
2021/12/06 02:37:27;;;;;;;;;;;;;;;;;;2123954;28;20030;-44
2021/12/06 02:38:33;;;;;;;;;;;;;;;;;;2125775;27;20360;-44
2021/12/06 02:39:34;;;;;;;;;;;;;;;;;;2125770;27;19924;-44
2021/12/06 02:40:35;;;;;;;;;;;;;;;;;;2124206;28;19931;-43
2021/12/06 02:41:36;;;;;;;;;;;;;;;;;;2124138;27;19923;-45
2021/12/06 02:42:37;;;;;;;;;;;;;;;;;;2130649;27;19966;-45
2021/12/06 02:43:38;;;;;;;;;;;;;;;;;;2132722;27;19958;-43
2021/12/06 02:44:38;;;;;;;;;;;;;;;;;;2130486;27;19923;-44
2021/12/06 02:45:39;;;;;;;;;;;;;;;;;;2131353;27;19923;-44
2021/12/06 02:46:40;;;;;;;;;;;;;;;;;;2132565;27;20272;-45
2021/12/06 02:47:41;;;;;;;;;;;;;;;;;;2129820;27;20333;-44
2021/12/06 02:48:42;;;;;;;;;;;;;;;;;;2132111;27;19923;-43
2021/12/06 02:49:42;;;;;;;;;;;;;;;;;;2132762;27;19930;-43
2021/12/06 02:50:43;;;;;;;;;;;;;;;;;;2127607;27;20352;-45
2021/12/06 02:51:44;;;;;;;;;;;;;;;;;;2131593;27;19923;-44
2021/12/06 02:52:45;;;;;;;;;;;;;;;;;;2132596;27;19923;-45
2021/12/06 02:53:46;;;;;;;;;;;;;;;;;;2129428;27;19923;-43
2021/12/06 02:54:54;;;;;;;;;;;;;;;;;;2123785;27;20083;-43
2021/12/06 02:55:58;;;;;;;;;;;;;;;;;;2124100;28;20010;-44
2021/12/06 02:57:18;;;;;;;;;;;;;;;;;;2127119;27;21100;-46
2021/12/06 02:58:32;;;;;;;;;;;;;;;;;;2132581;27;20006;-43
2021/12/06 02:59:33;;;;;;;;;;;;;;;;;;2129545;27;20451;-43
2021/12/06 03:00:34;;;;;;;;;;;;;;;;;;2130868;27;20310;-44
2021/12/06 03:01:35;;;;;;;;;;;;;;;;;;2132438;27;19923;-45
2021/12/06 03:02:36;;;;;;;;;;;;;;;;;;2127392;27;19923;-43
2021/12/06 03:03:37;;;;;;;;;;;;;;;;;;2123772;27;19977;-46
2021/12/06 03:04:38;;;;;;;;;;;;;;;;;;2123846;28;19931;-44
2021/12/06 03:05:38;;;;;;;;;;;;;;;;;;2126005;27;19924;-46
2021/12/06 03:06:40;;;;;;;;;;;;;;;;;;2132256;27;19923;-47
2021/12/06 03:07:41;;;;;;;;;;;;;;;;;;2132635;27;20383;-49
2021/12/06 03:08:42;;;;;;;;;;;;;;;;;;2126963;27;19966;-46
2021/12/06 03:09:43;;;;;;;;;;;;;;;;;;2124022;28;19959;-46
2021/12/06 03:10:43;;;;;;;;;;;;;;;;;;2123952;28;19946;-46
2021/12/06 03:11:44;;;;;;;;;;;;;;;;;;2127428;27;19970;-45
2021/12/06 03:12:45;;;;;;;;;;;;;;;;;;2132454;27;20401;-46
2021/12/06 03:13:46;;;;;;;;;;;;;;;;;;2131901;27;19923;-47
2021/12/06 03:14:47;;;;;;;;;;;;;;;;;;2128605;27;19982;-45
2021/12/06 03:15:48;;;;;;;;;;;;;;;;;;2123812;28;19930;-46
2021/12/06 03:16:48;;;;;;;;;;;;;;;;;;2124309;27;20327;-46
2021/12/06 03:17:49;;;;;;;;;;;;;;;;;;2130758;27;20026;-46
2021/12/06 03:18:50;;;;;;;;;;;;;;;;;;2132399;27;20008;-46
2021/12/06 03:19:51;;;;;;;;;;;;;;;;;;2131758;27;19923;-45
2021/12/06 03:20:52;;;;;;;;;;;;;;;;;;2128197;27;19999;-46
2021/12/06 03:21:53;;;;;;;;;;;;;;;;;;2132432;27;19927;-47
2021/12/06 03:22:53;;;;;;;;;;;;;;;;;;2131722;27;19923;-46
2021/12/06 03:23:54;;;;;;;;;;;;;;;;;;2128158;27;19923;-46
2021/12/06 03:24:55;;;;;;;;;;;;;;;;;;2132331;27;19923;-46
2021/12/06 03:25:56;;;;;;;;;;;;;;;;;;2131421;27;19927;-46
2021/12/06 03:26:57;;;;;;;;;;;;;;;;;;2125255;27;20372;-46
2021/12/06 03:27:58;;;;;;;;;;;;;;;;;;2123743;28;19924;-46
2021/12/06 03:28:58;;;;;;;;;;;;;;;;;;2123899;27;19923;-45
2021/12/06 03:29:59;;;;;;;;;;;;;;;;;;2125555;27;20022;-48
2021/12/06 03:31:00;;;;;;;;;;;;;;;;;;2123707;28;19927;-47
2021/12/06 03:32:01;;;;;;;;;;;;;;;;;;2125374;27;19923;-47
2021/12/06 03:33:02;;;;;;;;;;;;;;;;;;2129131;27;19934;-46
2021/12/06 03:34:03;;;;;;;;;;;;;;;;;;2132562;27;19927;-47
2021/12/06 03:35:03;;;;;;;;;;;;;;;;;;2130198;27;19927;-45
2021/12/06 03:36:04;;;;;;;;;;;;;;;;;;2123394;27;19927;-46
2021/12/06 03:37:05;;;;;;;;;;;;;;;;;;2123606;28;19966;-46
2021/12/06 03:38:06;;;;;;;;;;;;;;;;;;2123769;27;20390;-46
2021/12/06 03:39:07;;;;;;;;;;;;;;;;;;2130468;27;19923;-46
2021/12/06 03:40:08;;;;;;;;;;;;;;;;;;2132170;27;20018;-46
2021/12/06 03:41:08;;;;;;;;;;;;;;;;;;2129840;27;19992;-46
2021/12/06 03:42:09;;;;;;;;;;;;;;;;;;2123588;27;19961;-46
2021/12/06 03:43:10;;;;;;;;;;;;;;;;;;2123640;28;19970;-47
2021/12/06 03:44:11;;;;;;;;;;;;;;;;;;2128528;27;20410;-46
2021/12/06 03:45:12;;;;;;;;;;;;;;;;;;2123737;27;19976;-46
2021/12/06 03:46:13;;;;;;;;;;;;;;;;;;2123764;28;19927;-45
2021/12/06 03:47:13;;;;;;;;;;;;;;;;;;2127103;27;20264;-46
2021/12/06 03:48:14;;;;;;;;;;;;;;;;;;2123756;28;19924;-46
2021/12/06 03:49:15;;;;;;;;;;;;;;;;;;2123561;28;20439;-47
2021/12/06 03:50:16;;;;;;;;;;;;;;;;;;2125648;27;19925;-44
2021/12/06 03:51:17;;;;;;;;;;;;;;;;;;2132197;27;19923;-45
2021/12/06 03:52:18;;;;;;;;;;;;;;;;;;2132229;27;20013;-47
2021/12/06 03:53:19;;;;;;;;;;;;;;;;;;2124870;27;20314;-46
2021/12/06 03:54:20;;;;;;;;;;;;;;;;;;2132365;27;20083;-46
2021/12/06 03:55:20;;;;;;;;;;;;;;;;;;2131329;27;19923;-46
2021/12/06 03:56:21;;;;;;;;;;;;;;;;;;2127131;27;20319;-46
2021/12/06 03:57:22;;;;;;;;;;;;;;;;;;2123930;28;19927;-46
2021/12/06 03:58:23;;;;;;;;;;;;;;;;;;2124102;27;20025;-46
2021/12/06 03:59:24;;;;;;;;;;;;;;;;;;2126728;27;19924;-45
2021/12/06 04:00:25;;;;;;;;;;;;;;;;;;2131997;27;20376;-46
2021/12/06 04:01:25;;;;;;;;;;;;;;;;;;2131600;27;19923;-46
2021/12/06 04:02:27;;;;;;;;;;;;;;;;;;2126828;27;19923;-48
2021/12/06 04:03:28;;;;;;;;;;;;;;;;;;2132214;27;19923;-45
2021/12/06 04:04:29;;;;;;;;;;;;;;;;;;2131573;27;19923;-46
2021/12/06 04:05:30;;;;;;;;;;;;;;;;;;2128235;27;19962;-46
2021/12/06 04:06:31;;;;;;;;;;;;;;;;;;2132179;27;19934;-46
2021/12/06 04:07:31;;;;;;;;;;;;;;;;;;2129568;27;19923;-48
2021/12/06 04:08:32;;;;;;;;;;;;;;;;;;2125573;27;19923;-46
2021/12/06 04:09:33;;;;;;;;;;;;;;;;;;2123127;28;20482;-46
2021/12/06 04:10:34;;;;;;;;;;;;;;;;;;2123602;27;19931;-46
2021/12/06 04:11:36;;;;;;;;;;;;;;;;;;2128515;27;19962;-49
2021/12/06 04:12:37;;;;;;;;;;;;;;;;;;2131961;27;20013;-46
2021/12/06 04:13:37;;;;;;;;;;;;;;;;;;2129703;27;20360;-46
2021/12/06 04:14:38;;;;;;;;;;;;;;;;;;2131528;27;20022;-47
2021/12/06 04:15:40;;;;;;;;;;;;;;;;;;2132156;27;20438;-47
2021/12/06 04:16:41;;;;;;;;;;;;;;;;;;2128278;27;20018;-47
2021/12/06 04:17:42;;;;;;;;;;;;;;;;;;2123633;27;19930;-47
2021/12/06 04:18:43;;;;;;;;;;;;;;;;;;2123439;28;19927;-45
2021/12/06 04:19:44;;;;;;;;;;;;;;;;;;2125880;27;20349;-46
2021/12/06 04:20:44;;;;;;;;;;;;;;;;;;2130830;27;19930;-49
2021/12/06 04:21:45;;;;;;;;;;;;;;;;;;2131932;27;19958;-46
2021/12/06 04:22:46;;;;;;;;;;;;;;;;;;2126168;27;19972;-46
2021/12/06 04:23:47;;;;;;;;;;;;;;;;;;2123400;27;19927;-47
2021/12/06 04:24:48;;;;;;;;;;;;;;;;;;2123507;28;20302;-50
2021/12/06 04:25:49;;;;;;;;;;;;;;;;;;2125652;27;20329;-48
2021/12/06 04:26:49;;;;;;;;;;;;;;;;;;2132036;27;20006;-45
2021/12/06 04:27:54;;;;;;;;;;;;;;;;;;2131874;27;20013;-46
2021/12/06 04:29:00;;;;;;;;;;;;;;;;;;2122523;27;20006;-46
2021/12/06 04:30:00;;;;;;;;;;;;;;;;;;2123329;28;19998;-46
2021/12/06 04:31:01;;;;;;;;;;;;;;;;;;2123124;27;19924;-45
2021/12/06 04:32:02;;;;;;;;;;;;;;;;;;2125795;27;20289;-43
2021/12/06 04:33:03;;;;;;;;;;;;;;;;;;2123358;28;19934;-44
2021/12/06 04:34:04;;;;;;;;;;;;;;;;;;2123102;27;19931;-43
2021/12/06 04:35:12;;;;;;;;;;;;;;;;;;2127416;27;19974;-45
2021/12/06 04:36:13;;;;;;;;;;;;;;;;;;2131951;27;19927;-44
2021/12/06 04:37:14;;;;;;;;;;;;;;;;;;2128575;27;19923;-45
2021/12/06 04:38:14;;;;;;;;;;;;;;;;;;2125306;27;19930;-43
2021/12/06 04:39:15;;;;;;;;;;;;;;;;;;2123258;28;20402;-44
2021/12/06 04:40:16;;;;;;;;;;;;;;;;;;2123354;27;19930;-44
2021/12/06 04:41:17;;;;;;;;;;;;;;;;;;2129762;27;19930;-45
2021/12/06 04:42:19;;;;;;;;;;;;;;;;;;2131940;27;19972;-45
2021/12/06 04:43:19;;;;;;;;;;;;;;;;;;2128357;27;20018;-45
2021/12/06 04:44:20;;;;;;;;;;;;;;;;;;2129633;27;19923;-44
2021/12/06 04:45:21;;;;;;;;;;;;;;;;;;2132007;27;19931;-44
2021/12/06 04:46:22;;;;;;;;;;;;;;;;;;2128217;27;20021;-44
2021/12/06 04:47:23;;;;;;;;;;;;;;;;;;2123374;27;19928;-44
2021/12/06 04:48:24;;;;;;;;;;;;;;;;;;2123311;28;20273;-44
2021/12/06 04:49:27;;;;;;;;;;;;;;;;;;2123216;27;19972;-45
2021/12/06 04:50:30;;;;;;;;;;;;;;;;;;2123084;27;20013;-44
2021/12/06 04:51:31;;;;;;;;;;;;;;;;;;2123218;28;19923;-43
2021/12/06 04:52:32;;;;;;;;;;;;;;;;;;2123257;27;19946;-44
2021/12/06 04:53:36;;;;;;;;;;;;;;;;;;2131909;27;19927;-43
2021/12/06 04:54:37;;;;;;;;;;;;;;;;;;2131839;27;20006;-44
2021/12/06 04:55:37;;;;;;;;;;;;;;;;;;2125035;27;20364;-43
2021/12/06 04:56:38;;;;;;;;;;;;;;;;;;2131770;27;19930;-47
2021/12/06 04:57:39;;;;;;;;;;;;;;;;;;2131342;27;20329;-44
2021/12/06 04:58:40;;;;;;;;;;;;;;;;;;2127548;27;19923;-44
2021/12/06 04:59:41;;;;;;;;;;;;;;;;;;2123215;28;19923;-44
2021/12/06 05:00:42;;;;;;;;;;;;;;;;;;2122658;27;19931;-43
2021/12/06 05:01:42;;;;;;;;;;;;;;;;;;2126462;27;19927;-45
2021/12/06 05:02:44;;;;;;;;;;;;;;;;;;2131765;27;19933;-44
2021/12/06 05:03:45;;;;;;;;;;;;;;;;;;2130967;27;19923;-45
2021/12/06 05:04:47;;;;;;;;;;;;;;;;;;2125248;27;20348;-45
2021/12/06 05:05:48;;;;;;;;;;;;;;;;;;2123099;28;20447;-43
2021/12/06 05:06:49;;;;;;;;;;;;;;;;;;2123537;27;19930;-44
2021/12/06 05:07:50;;;;;;;;;;;;;;;;;;2126757;27;20021;-44
2021/12/06 05:08:50;;;;;;;;;;;;;;;;;;2131835;27;19930;-44
2021/12/06 05:09:51;;;;;;;;;;;;;;;;;;2129867;27;19930;-45
2021/12/06 05:10:52;;;;;;;;;;;;;;;;;;2129040;27;19927;-44
2021/12/06 05:11:53;;;;;;;;;;;;;;;;;;2131653;27;19927;-44
2021/12/06 05:12:54;;;;;;;;;;;;;;;;;;2129319;27;19930;-44
2021/12/06 05:13:54;;;;;;;;;;;;;;;;;;2128333;27;19946;-45
2021/12/06 05:14:59;;;;;;;;;;;;;;;;;;2131655;27;19930;-44
2021/12/06 05:16:00;;;;;;;;;;;;;;;;;;2127728;27;20288;-45
2021/12/06 05:17:01;;;;;;;;;;;;;;;;;;2129519;27;19934;-43
2021/12/06 05:18:02;;;;;;;;;;;;;;;;;;2131780;27;19930;-43
2021/12/06 05:19:02;;;;;;;;;;;;;;;;;;2126964;27;19927;-45
2021/12/06 05:20:03;;;;;;;;;;;;;;;;;;2123053;27;20143;-44
2021/12/06 05:21:04;;;;;;;;;;;;;;;;;;2122899;27;19932;-43
2021/12/06 05:22:05;;;;;;;;;;;;;;;;;;2125915;27;19923;-44
2021/12/06 05:23:05;;;;;;;;;;;;;;;;;;2124578;28;19931;-44
2021/12/06 05:24:07;;;;;;;;;;;;;;;;;;2124063;27;19930;-44
2021/12/06 05:25:07;;;;;;;;;;;;;;;;;;2127403;27;20006;-43
2021/12/06 05:26:08;;;;;;;;;;;;;;;;;;2133300;27;19930;-46
2021/12/06 05:27:09;;;;;;;;;;;;;;;;;;2131455;27;20329;-50
2021/12/06 05:28:10;;;;;;;;;;;;;;;;;;2127860;27;19931;-47
2021/12/06 05:29:11;;;;;;;;;;;;;;;;;;2131721;27;20006;-48
2021/12/06 05:30:12;;;;;;;;;;;;;;;;;;2131134;27;19927;-48
2021/12/06 05:31:15;;;;;;;;;;;;;;;;;;2127811;27;19923;-45
2021/12/06 05:32:16;;;;;;;;;;;;;;;;;;2133242;27;19954;-48
2021/12/06 05:33:28;;;;;;;;;;;;;;;;;;2130335;27;19923;-47
2021/12/06 05:34:32;;;;;;;;;;;;;;;;;;2131972;27;19923;-46
2021/12/06 05:35:33;;;;;;;;;;;;;;;;;;2133207;27;19955;-45
2021/12/06 05:36:34;;;;;;;;;;;;;;;;;;2131854;27;19956;-43
2021/12/06 05:37:35;;;;;;;;;;;;;;;;;;2124214;27;20006;-45
2021/12/06 05:38:36;;;;;;;;;;;;;;;;;;2124422;28;19929;-44
2021/12/06 05:39:37;;;;;;;;;;;;;;;;;;2124368;27;19923;-44
2021/12/06 05:40:38;;;;;;;;;;;;;;;;;;2132398;27;19923;-44
2021/12/06 05:41:39;;;;;;;;;;;;;;;;;;2133065;27;20064;-44
2021/12/06 05:42:40;;;;;;;;;;;;;;;;;;2128365;27;19984;-44
2021/12/06 05:43:40;;;;;;;;;;;;;;;;;;2133112;27;20287;-44
2021/12/06 05:44:41;;;;;;;;;;;;;;;;;;2132988;27;19949;-44
2021/12/06 05:45:42;;;;;;;;;;;;;;;;;;2128455;27;19931;-44
2021/12/06 05:46:43;;;;;;;;;;;;;;;;;;2124419;28;19923;-45
2021/12/06 05:47:44;;;;;;;;;;;;;;;;;;2124296;28;19934;-45
2021/12/06 05:48:45;;;;;;;;;;;;;;;;;;2128992;27;20402;-46
2021/12/06 05:49:45;;;;;;;;;;;;;;;;;;2124771;28;19927;-48
2021/12/06 05:50:46;;;;;;;;;;;;;;;;;;2124445;27;19924;-47
2021/12/06 05:51:47;;;;;;;;;;;;;;;;;;2129013;27;19923;-48
2021/12/06 05:52:49;;;;;;;;;;;;;;;;;;2124481;28;19923;-45
2021/12/06 05:53:50;;;;;;;;;;;;;;;;;;2125039;27;20378;-46
2021/12/06 05:54:50;;;;;;;;;;;;;;;;;;2128589;27;19965;-45
2021/12/06 05:55:51;;;;;;;;;;;;;;;;;;2133097;27;19930;-48
2021/12/06 05:56:52;;;;;;;;;;;;;;;;;;2130824;27;19968;-47
2021/12/06 05:57:53;;;;;;;;;;;;;;;;;;2127546;27;19959;-48
2021/12/06 05:58:54;;;;;;;;;;;;;;;;;;2133045;27;19940;-47
2021/12/06 05:59:55;;;;;;;;;;;;;;;;;;2130676;27;19955;-47
2021/12/06 06:00:55;;;;;;;;;;;;;;;;;;2128825;27;20117;-47
2021/12/06 06:01:57;;;;;;;;;;;;;;;;;;2132888;27;19933;-48
2021/12/06 06:02:58;;;;;;;;;;;;;;;;;;2130628;27;19972;-47
2021/12/06 06:04:01;;;;;;;;;;;;;;;;;;2129110;27;20321;-47
2021/12/06 06:05:01;;;;;;;;;;;;;;;;;;2132981;27;20022;-49
2021/12/06 06:06:02;;;;;;;;;;;;;;;;;;2131551;27;19934;-48
2021/12/06 06:07:03;;;;;;;;;;;;;;;;;;2130951;27;19927;-47
2021/12/06 06:08:04;;;;;;;;;;;;;;;;;;2132881;27;19966;-50
2021/12/06 06:09:05;;;;;;;;;;;;;;;;;;2129604;27;19930;-48
2021/12/06 06:10:06;;;;;;;;;;;;;;;;;;2131583;27;19923;-48
2021/12/06 06:11:06;;;;;;;;;;;;;;;;;;2132784;27;20366;-48
2021/12/06 06:12:07;;;;;;;;;;;;;;;;;;2128805;27;20422;-48
2021/12/06 06:13:08;;;;;;;;;;;;;;;;;;2130997;27;19938;-48
2021/12/06 06:14:09;;;;;;;;;;;;;;;;;;2132854;27;19924;-52
2021/12/06 06:15:10;;;;;;;;;;;;;;;;;;2126895;27;19928;-48
2021/12/06 06:16:18;;;;;;;;;;;;;;;;;;2132532;27;19934;-47
2021/12/06 06:17:19;;;;;;;;;;;;;;;;;;2132943;27;20505;-45
2021/12/06 06:18:20;;;;;;;;;;;;;;;;;;2128629;27;20068;-45
2021/12/06 06:19:21;;;;;;;;;;;;;;;;;;2124442;28;20181;-47
2021/12/06 06:20:22;;;;;;;;;;;;;;;;;;2124071;28;19923;-45
2021/12/06 06:21:23;;;;;;;;;;;;;;;;;;2127813;27;19930;-46
2021/12/06 06:22:23;;;;;;;;;;;;;;;;;;2124078;28;19949;-46
2021/12/06 06:23:24;;;;;;;;;;;;;;;;;;2124038;27;19923;-47
2021/12/06 06:24:25;;;;;;;;;;;;;;;;;;2127832;27;20011;-47
2021/12/06 06:25:26;;;;;;;;;;;;;;;;;;2124191;28;19923;-47
2021/12/06 06:26:27;;;;;;;;;;;;;;;;;;2124687;27;19923;-48
2021/12/06 06:27:28;;;;;;;;;;;;;;;;;;2127312;27;19923;-47
2021/12/06 06:28:29;;;;;;;;;;;;;;;;;;2132813;27;19923;-47
2021/12/06 06:29:31;;;;;;;;;;;;;;;;;;2130489;27;19923;-49
2021/12/06 06:30:32;;;;;;;;;;;;;;;;;;2126401;27;19923;-47
2021/12/06 06:31:32;;;;;;;;;;;;;;;;;;2124063;27;19924;-47
2021/12/06 06:32:34;;;;;;;;;;;;;;;;;;2124176;27;19927;-48
2021/12/06 06:33:34;;;;;;;;;;;;;;;;;;2128106;27;19967;-52
2021/12/06 06:34:36;;;;;;;;;;;;;;;;;;2132987;27;19923;-47
2021/12/06 06:35:36;;;;;;;;;;;;;;;;;;2130251;27;19923;-47
2021/12/06 06:36:37;;;;;;;;;;;;;;;;;;2126268;27;19927;-48
2021/12/06 06:37:38;;;;;;;;;;;;;;;;;;2123991;28;19923;-48
2021/12/06 06:38:39;;;;;;;;;;;;;;;;;;2125606;27;20010;-47
2021/12/06 06:39:40;;;;;;;;;;;;;;;;;;2129439;27;19923;-48
2021/12/06 06:40:41;;;;;;;;;;;;;;;;;;2132507;27;19924;-48
2021/12/06 06:41:41;;;;;;;;;;;;;;;;;;2129995;27;20061;-48
2021/12/06 06:42:42;;;;;;;;;;;;;;;;;;2130646;27;20292;-48
2021/12/06 06:43:43;;;;;;;;;;;;;;;;;;2132799;27;19978;-47
2021/12/06 06:44:44;;;;;;;;;;;;;;;;;;2129057;27;19971;-48
2021/12/06 06:45:45;;;;;;;;;;;;;;;;;;2124648;27;19975;-47
2021/12/06 06:46:46;;;;;;;;;;;;;;;;;;2124107;28;20014;-48
2021/12/06 06:47:46;;;;;;;;;;;;;;;;;;2126897;27;19939;-49
2021/12/06 06:48:47;;;;;;;;;;;;;;;;;;2123853;27;19943;-50
2021/12/06 06:49:48;;;;;;;;;;;;;;;;;;2124017;28;20380;-48
2021/12/06 06:50:52;;;;;;;;;;;;;;;;;;2127407;27;19932;-47
2021/12/06 06:51:53;;;;;;;;;;;;;;;;;;2123920;27;19931;-51
2021/12/06 06:52:54;;;;;;;;;;;;;;;;;;2124247;28;19928;-47
2021/12/06 06:53:55;;;;;;;;;;;;;;;;;;2125663;27;20395;-49
2021/12/06 06:54:56;;;;;;;;;;;;;;;;;;2132565;27;19927;-51
2021/12/06 06:55:57;;;;;;;;;;;;;;;;;;2132617;27;19961;-49
2021/12/06 06:56:58;;;;;;;;;;;;;;;;;;2127754;27;19930;-49
2021/12/06 06:57:59;;;;;;;;;;;;;;;;;;2124083;28;19924;-48
2021/12/06 06:58:59;;;;;;;;;;;;;;;;;;2123691;27;19976;-48
2021/12/06 07:00:00;;;;;;;;;;;;;;;;;;2127749;27;19931;-48
2021/12/06 07:01:01;;;;;;;;;;;;;;;;;;2123931;28;20014;-47
2021/12/06 07:02:02;;;;;;;;;;;;;;;;;;2123362;27;20014;-48
2021/12/06 07:03:03;;;;;;;;;;;;;;;;;;2130134;27;20014;-47
2021/12/06 07:04:04;;;;;;;;;;;;;;;;;;2132502;27;19938;-48
2021/12/06 07:05:05;;;;;;;;;;;;;;;;;;2130454;27;19927;-49
2021/12/06 07:06:06;;;;;;;;;;;;;;;;;;2127415;27;19984;-49
2021/12/06 07:07:07;;;;;;;;;;;;;;;;;;2132410;27;20353;-50
2021/12/06 07:08:08;;;;;;;;;;;;;;;;;;2130560;27;20013;-48
2021/12/06 07:09:08;;;;;;;;;;;;;;;;;;2127145;27;20301;-48